Terminal Aerodrome Forecast
Issued by NWS

Home | Current Version | Previous Version | Graphics & Text | Print | Product List | Glossary On
Versions: 1 2 3 4 5 6 7 8 9 10 11 12
000
FTUS43 KTOP 292320
TAFMHK
TAF
KMHK 292320Z 3000/3024 06005KT P6SM FEW040 SCT100
     FM300600 VRB03KT P6SM SCT100
     FM301600 16005KT P6SM FEW100=

USA.gov is the U.S. government's official web portal to all federal, state and local government web resources and services.